地図

経路データ

SID SEASON NUMBER BASIN SUBBASIN NAME ISO_TIME NATURE LAT LON WMO_WIND WMO_PRES WMO_AGENCY TRACK_TYPE DIST2LAND LANDFALL IFLAG USA_AGENCY USA_ATCF_ID USA_LAT USA_LON USA_RECORD USA_STATUS USA_WIND USA_PRES USA_SSHS USA_R34_NE USA_R34_SE USA_R34_SW USA_R34_NW USA_R50_NE USA_R50_SE USA_R50_SW USA_R50_NW USA_R64_NE USA_R64_SE USA_R64_SW USA_R64_NW USA_POCI USA_ROCI USA_RMW USA_EYE TOKYO_LAT TOKYO_LON TOKYO_GRADE TOKYO_WIND TOKYO_PRES TOKYO_R50_DIR TOKYO_R50_LONG TOKYO_R50_SHORT TOKYO_R30_DIR TOKYO_R30_LONG TOKYO_R30_SHORT TOKYO_LAND CMA_LAT CMA_LON CMA_CAT CMA_WIND CMA_PRES HKO_LAT HKO_LON HKO_CAT HKO_WIND HKO_PRES NEWDELHI_LAT NEWDELHI_LON NEWDELHI_GRADE NEWDELHI_WIND NEWDELHI_PRES NEWDELHI_CI NEWDELHI_DP NEWDELHI_POCI REUNION_LAT REUNION_LON REUNION_TYPE REUNION_WIND REUNION_PRES REUNION_TNUM REUNION_CI REUNION_RMW REUNION_R34_NE REUNION_R34_SE REUNION_R34_SW REUNION_R34_NW REUNION_R50_NE REUNION_R50_SE REUNION_R50_SW REUNION_R50_NW REUNION_R64_NE REUNION_R64_SE REUNION_R64_SW REUNION_R64_NW BOM_LAT BOM_LON BOM_TYPE BOM_WIND BOM_PRES BOM_TNUM BOM_CI BOM_RMW BOM_R34_NE BOM_R34_SE BOM_R34_SW BOM_R34_NW BOM_R50_NE BOM_R50_SE BOM_R50_SW BOM_R50_NW BOM_R64_NE BOM_R64_SE BOM_R64_SW BOM_R64_NW BOM_ROCI BOM_POCI BOM_EYE BOM_POS_METHOD BOM_PRES_METHOD NADI_LAT NADI_LON NADI_CAT NADI_WIND NADI_PRES WELLINGTON_LAT WELLINGTON_LON WELLINGTON_WIND WELLINGTON_PRES DS824_LAT DS824_LON DS824_STAGE DS824_WIND DS824_PRES TD9636_LAT TD9636_LON TD9636_STAGE TD9636_WIND TD9636_PRES TD9635_LAT TD9635_LON TD9635_WIND TD9635_PRES TD9635_ROCI NEUMANN_LAT NEUMANN_LON NEUMANN_CLASS NEUMANN_WIND NEUMANN_PRES MLC_LAT MLC_LON MLC_CLASS MLC_WIND MLC_PRES USA_GUST BOM_GUST BOM_GUST_PER REUNION_GUST REUNION_GUST_PER USA_SEAHGT USA_SEARAD_NE USA_SEARAD_SE USA_SEARAD_SW USA_SEARAD_NW STORM_SPEED STORM_DIR
1955087S17054 1955 24 SI MM NOT_NAMED 1955-03-28 06:00:00 TS -17.0000 53.8000 main 395 395 O________OO___ jtwc_sh SH241955 -17.0000 53.8000 -1 -17.0000 53.8000 TC 25 -17.0000 53.8000 7 4 147
1955087S17054 1955 24 SI MM NOT_NAMED 1955-03-28 09:00:00 TS -17.1479 53.8995 main 409 409 P________PP___ SH241955 -17.1500 53.8900 -1 -17.1500 53.8900 TC 25 -17.1438 53.9186 7 4 145
1955087S17054 1955 24 SI MM NOT_NAMED 1955-03-28 12:00:00 TS -17.2967 54.0133 main 428 421 O________OP___ jtwc_sh SH241955 -17.3000 54.0000 -1 -17.3000 54.0000 TC 25 -17.2900 54.0399 7 4 141
1955087S17054 1955 24 SI MM NOT_NAMED 1955-03-28 15:00:00 TS -17.4471 54.1504 main 418 394 P________PP___ SH241955 -17.4500 54.1425 -1 -17.4500 54.1425 TC 25 -17.4413 54.1662 7 4 138
1955087S17054 1955 24 SI MM NOT_NAMED 1955-03-28 18:00:00 TS -17.6000 54.3000 main 394 381 O________OO___ jtwc_sh SH241955 -17.6000 54.3000 -1 -17.6000 54.3000 TC 25 -17.6000 54.3000 1 4 137
1955087S17054 1955 24 SI MM NOT_NAMED 1955-03-28 21:00:00 TS -17.7509 54.4476 main 370 354 P________PP___ SH241955 -17.7425 54.4500 -1 -17.7425 54.4500 TC 25 -17.7678 54.4428 1 4 138
1955087S17054 1955 24 SI MM NOT_NAMED 1955-03-29 00:00:00 TS -17.9142 54.5975 main 354 330 O________OP___ jtwc_sh SH241955 -17.9000 54.6000 -1 -17.9000 54.6000 TC 25 -17.9425 54.5925 1 5 141
1955087S17054 1955 24 SI MM NOT_NAMED 1955-03-29 03:00:00 TS -18.1070 54.7487 main 330 304 P________PP___ SH241955 -18.1000 54.7500 -1 -18.1000 54.7500 TC 25 -18.1209 54.7460 1 5 143
1955087S17054 1955 24 SI MM NOT_NAMED 1955-03-29 06:00:00 TS -18.3000 54.9000 main 304 281 O________OO___ jtwc_sh SH241955 -18.3000 54.9000 -1 -18.3000 54.9000 TC 25 -18.3000 54.9000 1 5 141
1955087S17054 1955 24 SI MM NOT_NAMED 1955-03-29 09:00:00 TS -18.4637 55.0500 main 280 268 P________PP___ SH241955 -18.4500 55.0501 -1 -18.4500 55.0501 TC 25 -18.4912 55.0500 1 4 139
1955087S17054 1955 24 SI MM NOT_NAMED 1955-03-29 12:00:00 TS -18.6266 55.2000 main 268 246 O________OP___ jtwc_sh SH241955 -18.6000 55.2000 -1 -18.6000 55.2000 TC 25 -18.6799 55.2000 1 5 141
1955087S17054 1955 24 SI MM NOT_NAMED 1955-03-29 15:00:00 TS -18.8229 55.3550 main 246 223 P________PP___ SH241955 -18.8075 55.3575 -1 -18.8075 55.3575 TC 25 -18.8537 55.3500 1 5 143
1955087S17054 1955 24 SI MM NOT_NAMED 1955-03-29 18:00:00 TS -19.0000 55.5000 main 223 212 O________OO___ jtwc_sh SH241955 -19.0000 55.5000 -1 -19.0000 55.5000 TC 25 -19.0000 55.5000 1 4 141
1955087S17054 1955 24 SI MM NOT_NAMED 1955-03-29 21:00:00 TS -19.1093 55.6010 main 212 201 P________PP___ SH241955 -19.1224 55.5926 -1 -19.1224 55.5926 TC 25 -19.0831 55.6180 1 3 132
1955087S17054 1955 24 SI MM NOT_NAMED 1955-03-30 00:00:00 TS -19.1807 55.7136 main 201 195 O________OP___ jtwc_sh SH241955 -19.2000 55.7000 -1 -19.2000 55.7000 TC 25 -19.1420 55.7408 1 3 114
1955087S17054 1955 24 SI MM NOT_NAMED 1955-03-30 03:00:00 TS -19.2249 55.8778 main 195 171 P________PP___ SH241955 -19.2350 55.8701 -1 -19.2350 55.8701 TC 25 -19.2049 55.8931 1 4 108
1955087S17054 1955 24 SI MM NOT_NAMED 1955-03-30 06:00:00 TS -19.3000 56.1000 main 171 133 O________OO___ jtwc_sh SH241955 -19.3000 56.1000 -1 -19.3000 56.1000 TC 25 -19.3000 56.1000 1 5 119
1955087S17054 1955 24 SI MM NOT_NAMED 1955-03-30 09:00:00 TS -19.4812 56.3773 main 133 94 P________PP___ SH241955 -19.4774 56.3700 -1 -19.4774 56.3700 TC 25 -19.4887 56.3918 1 7 125
1955087S17054 1955 24 SI MM NOT_NAMED 1955-03-30 12:00:00 TS -19.7026 56.7130 main 94 47 O________OP___ jtwc_sh SH241955 -19.7000 56.7000 -1 -19.7000 56.7000 TC 25 -19.7078 56.7390 1 8 123
1955087S17054 1955 24 SI MM NOT_NAMED 1955-03-30 15:00:00 TS -19.9227 57.1005 main 47 0 P________PP___ SH241955 -19.9226 57.0924 -1 -19.9226 57.0924 TC 25 -19.9230 57.1168 1 8 118
1955087S17054 1955 24 SI MM NOT_NAMED 1955-03-30 18:00:00 TS -20.1000 57.5000 main 0 0 O________OO___ jtwc_sh SH241955 -20.1000 57.5000 -1 -20.1000 57.5000 TC 25 -20.1000 57.5000 1 7 110
1955087S17054 1955 24 SI MM NOT_NAMED 1955-03-30 21:00:00 TS -20.1774 57.8324 main 10 10 P________PP___ SH241955 -20.1724 57.8577 -1 -20.1724 57.8577 TC 25 -20.1876 57.7818 1 6 100
1955087S17054 1955 24 SI MM NOT_NAMED 1955-03-31 00:00:00 TS -20.2117 58.1579 main 43 43 O________OP___ jtwc_sh SH241955 -20.2000 58.2000 -1 -20.2000 58.2000 TC 25 -20.2350 58.0738 1 6 97
1955087S17054 1955 24 SI MM NOT_NAMED 1955-03-31 03:00:00 TS -20.2497 58.4747 main 73 72 P________PP___ SH241955 -20.2420 58.4977 -1 -20.2420 58.4977 TC 25 -20.2651 58.4287 1 7 97
1955087S17054 1955 24 SI MM NOT_NAMED 1955-03-31 06:00:00 TS -20.3000 58.9000 main 114 114 O________OO___ jtwc_sh SH241955 -20.3000 58.9000 -1 -20.3000 58.9000 TC 25 -20.3000 58.9000 1 10 98
1955087S17054 1955 24 SI MM NOT_NAMED 1955-03-31 09:00:00 TS -20.3951 59.5367 main 177 177 P________PP___ SH241955 -20.3999 59.5249 -1 -20.3999 59.5249 TC 25 -20.3853 59.5603 1 13 98
1955087S17054 1955 24 SI MM NOT_NAMED 1955-03-31 12:00:00 TS -20.4914 60.3122 main 261 261 O________OP___ jtwc_sh SH241955 -20.5000 60.3000 -1 -20.5000 60.3000 TC 25 -20.4743 60.3366 1 15 96
1955087S17054 1955 24 SI MM NOT_NAMED 1955-03-31 15:00:00 TS -20.5603 61.1516 main 355 355 P________PP___ SH241955 -20.5651 61.1425 -1 -20.5651 61.1425 TC 25 -20.5508 61.1697 1 16 94
1955087S17054 1955 24 SI MM NOT_NAMED 1955-03-31 18:00:00 TS -20.6000 62.0000 main 438 438 O________OO___ jtwc_sh SH241955 -20.6000 62.0000 -1 -20.6000 62.0000 TC 25 -20.6000 62.0000 1 15 92
1955087S17054 1955 24 SI MM NOT_NAMED 1955-03-31 21:00:00 TS -20.6137 62.7751 main 521 521 P________PP___ SH241955 -20.6146 62.7725 -1 -20.6146 62.7725 TC 25 -20.6120 62.7802 1 14 90
1955087S17054 1955 24 SI MM NOT_NAMED 1955-04-01 00:00:00 TS -20.5976 63.5044 main 594 594 O________OP___ jtwc_sh SH241955 -20.6000 63.5000 -1 -20.6000 63.5000 TC 25 -20.5929 63.5133 1 13 88
1955087S17054 1955 24 SI MM NOT_NAMED 1955-04-01 03:00:00 TS -20.5562 64.2083 main 667 667 P________PP___ SH241955 -20.5581 64.2051 -1 -20.5581 64.2051 TC 25 -20.5524 64.2147 1 13 86
1955087S17054 1955 24 SI MM NOT_NAMED 1955-04-01 06:00:00 TS -20.5000 64.9000 main 740 O________OO___ jtwc_sh SH241955 -20.5000 64.9000 -1 -20.5000 64.9000 TC 25 -20.5000 64.9000 1 13 85

IBTrACS Databaseについて

本データベースは、米国NOAAが公開する1842年以降の世界の熱帯低気圧のベストトラックデータアーカイブInternational Best Track Archive for Climate Stewardship (IBTrACS)を、ウェブで閲覧しやすい形式に変換したものです。

最終更新日:2021-12-06